Time;durP1;ratioP1;P1;durP2;ratioP2;P2;SDS_P1;SDS_P2;PMS_P1;PMS_P2;Temp;Humidity;BMP_temperature;BMP_pressure;BME280_temperature;BME280_humidity;BME280_pressure;Samples;Min_cycle;Max_cycle;Signal;HPM_P1;HPM_P2
2021/11/07 00:01:51;;;;;;;5.13;4.03;;;;;;;11.25;68.33;99828.06;6009586;23;20024;-86
2021/11/07 00:04:35;;;;;;;6.93;3.63;;;;;;;11.23;68.37;99798.31;6010089;23;20024;-87
2021/11/07 00:12:13;;;;;;;7.85;4.05;;;;;;;11.14;68.76;99790.00;6010370;23;20038;-83
2021/11/07 00:14:40;;;;;;;5.88;4.47;;;;;;;11.10;69.57;99792.91;5986174;23;20028;-87
2021/11/07 00:17:07;;;;;;;7.78;4.20;;;;;;;11.07;69.36;99784.25;6010679;23;20547;-83
2021/11/07 00:19:38;;;;;;;8.20;4.32;;;;;;;11.05;69.46;99787.91;6010679;23;20459;-86
2021/11/07 00:22:18;;;;;;;6.20;4.15;;;;;;;11.04;69.54;99781.81;6009257;23;20144;-88
2021/11/07 00:24:55;;;;;;;5.47;3.83;;;;;;;11.02;69.56;99778.41;6010680;23;20023;-87
2021/11/07 00:27:27;;;;;;;5.93;3.83;;;;;;;11.01;69.75;99779.34;6010363;23;20086;-84
2021/11/07 00:37:48;;;;;;;7.05;4.18;;;;;;;10.93;70.17;99756.09;6011614;23;20027;-85
2021/11/07 00:40:34;;;;;;;5.38;4.10;;;;;;;10.87;71.44;99758.25;5986508;23;20020;-87
2021/11/07 00:43:15;;;;;;;8.20;4.35;;;;;;;10.88;70.39;99738.88;5986817;23;20460;-85
2021/11/07 00:45:49;;;;;;;5.68;4.32;;;;;;;10.85;70.84;99741.66;5986980;23;20394;-84
2021/11/07 00:48:27;;;;;;;4.45;3.78;;;;;;;10.81;70.77;99741.84;6010574;23;20039;-86
2021/11/07 00:54:04;;;;;;;8.40;3.45;;;;;;;10.78;71.00;99718.34;6010314;23;20063;-82
2021/11/07 01:02:22;;;;;;;4.45;3.58;;;;;;;10.71;72.63;99713.50;6011706;23;20404;-85
2021/11/07 01:04:50;;;;;;;5.00;3.53;;;;;;;10.75;71.20;99712.38;6010072;23;20028;-86
2021/11/07 01:07:20;;;;;;;3.92;3.53;;;;;;;10.76;71.26;99706.22;6008817;23;20452;-87
2021/11/07 01:09:47;;;;;;;5.65;3.53;;;;;;;10.76;71.35;99703.59;6010110;23;20095;-85
2021/11/07 01:12:14;;;;;;;5.13;4.15;;;;;;;10.76;71.30;99693.88;6010921;23;20035;-87
2021/11/07 01:14:41;;;;;;;7.13;3.90;;;;;;;10.74;71.55;99695.78;6009492;23;20471;-83
2021/11/07 01:17:07;;;;;;;4.03;3.15;;;;;;;10.76;71.58;99683.34;6010423;23;20028;-82
2021/11/07 01:19:35;;;;;;;7.65;4.60;;;;;;;10.76;71.69;99685.97;6008640;23;20054;-85
2021/11/07 01:22:05;;;;;;;5.65;3.92;;;;;;;10.75;71.62;99681.66;6010638;23;20095;-84
2021/11/07 01:24:38;;;;;;;4.53;3.67;;;;;;;10.76;71.85;99680.72;6010650;23;20023;-82
2021/11/07 01:27:18;;;;;;;4.22;3.70;;;;;;;10.77;71.78;99674.50;5986227;23;20032;-82
2021/11/07 01:29:49;;;;;;;5.85;4.45;;;;;;;10.77;71.95;99676.31;6011123;23;20108;-83
2021/11/07 01:32:20;;;;;;;4.55;3.92;;;;;;;10.75;72.33;99641.31;6010908;23;20075;-86
2021/11/07 01:35:13;;;;;;;4.45;3.28;;;;;;;10.78;72.11;99649.88;6009848;23;20023;-85
2021/11/07 01:40:31;;;;;;;5.05;3.70;;;;;;;10.80;72.19;99636.59;6010352;23;20027;-83
2021/11/07 01:42:59;;;;;;;5.90;3.63;;;;;;;10.81;72.06;99639.16;6012602;23;20035;-86
2021/11/07 01:45:41;;;;;;;4.35;3.65;;;;;;;10.81;72.84;99639.16;6012779;23;20083;-82
2021/11/07 01:48:27;;;;;;;5.22;3.45;;;;;;;10.84;72.40;99637.28;6012580;23;20356;-85
2021/11/07 01:50:58;;;;;;;4.15;3.42;;;;;;;10.87;72.26;99627.41;5987747;23;20040;-85
2021/11/07 01:53:32;;;;;;;3.28;2.97;;;;;;;10.89;72.29;99636.09;6012716;23;20119;-82
2021/11/07 01:56:10;;;;;;;4.50;3.40;;;;;;;10.91;72.56;99643.84;6012989;23;20088;-86
2021/11/07 01:58:39;;;;;;;5.57;3.38;;;;;;;10.93;72.22;99636.72;6013007;23;20035;-85
2021/11/07 02:01:08;;;;;;;3.42;3.13;;;;;;;10.94;72.15;99628.75;6012259;23;20028;-86
2021/11/07 02:03:35;;;;;;;4.68;3.47;;;;;;;10.96;72.07;99620.75;6012523;23;20031;-83
2021/11/07 02:06:04;;;;;;;3.30;2.80;;;;;;;10.99;72.22;99606.53;6012532;23;20114;-85
2021/11/07 02:08:31;;;;;;;4.35;3.05;;;;;;;11.02;72.12;99622.13;6012288;23;20027;-87
2021/11/07 02:10:59;;;;;;;3.30;2.97;;;;;;;11.04;72.14;99615.00;6012250;23;20034;-83
2021/11/07 02:13:27;;;;;;;3.30;3.05;;;;;;;11.03;72.41;99616.78;5987187;23;20024;-86
2021/11/07 02:15:55;;;;;;;4.00;3.10;;;;;;;11.06;72.11;99626.28;5986913;23;20464;-85
2021/11/07 02:18:30;;;;;;;3.65;3.00;;;;;;;11.09;71.81;99607.66;6012248;23;20416;-87
2021/11/07 02:20:56;;;;;;;5.10;3.20;;;;;;;11.12;72.04;99601.34;6011947;23;20078;-87
2021/11/07 02:23:25;;;;;;;3.78;3.03;;;;;;;11.13;72.17;99603.03;5987740;23;20064;-84
2021/11/07 02:26:02;;;;;;;3.40;3.10;;;;;;;11.13;72.10;99597.78;6012463;23;20460;-86
2021/11/07 02:28:42;;;;;;;3.28;2.97;;;;;;;11.13;72.43;99595.13;5987469;23;20365;-83
2021/11/07 02:31:12;;;;;;;3.13;2.83;;;;;;;11.14;72.16;99576.59;5986755;23;20463;-84
2021/11/07 02:33:42;;;;;;;3.20;2.90;;;;;;;11.16;72.09;99593.19;6011001;23;20058;-83
2021/11/07 02:36:14;;;;;;;3.25;2.65;;;;;;;11.17;72.19;99578.19;6011216;23;20034;-85
2021/11/07 02:38:44;;;;;;;3.65;3.17;;;;;;;11.18;72.23;99572.00;6012201;23;20105;-86
2021/11/07 02:41:12;;;;;;;4.38;3.03;;;;;;;11.19;72.22;99579.81;6012853;23;20058;-85
2021/11/07 02:43:48;;;;;;;3.90;3.20;;;;;;;11.17;72.57;99572.94;6011850;23;20805;-85
2021/11/07 02:46:16;;;;;;;5.22;2.92;;;;;;;11.21;72.19;99569.16;6012244;23;20476;-84
2021/11/07 02:48:48;;;;;;;5.65;3.40;;;;;;;11.19;72.53;99571.91;5987388;23;20322;-85
2021/11/07 02:51:15;;;;;;;3.60;3.30;;;;;;;11.23;72.29;99556.75;6012138;23;20028;-86
2021/11/07 02:53:42;;;;;;;3.50;3.20;;;;;;;11.21;72.34;99561.25;6011605;23;20023;-82
2021/11/07 02:56:10;;;;;;;3.90;3.40;;;;;;;11.21;72.31;99556.84;6012679;23;20023;-83
2021/11/07 02:58:37;;;;;;;4.97;3.33;;;;;;;11.20;72.12;99551.66;6011641;23;20042;-85
2021/11/07 03:01:04;;;;;;;7.25;3.78;;;;;;;11.19;72.42;99550.84;6010731;23;20030;-85
2021/11/07 03:03:32;;;;;;;6.40;4.05;;;;;;;11.19;72.51;99542.09;5987045;23;20401;-84
2021/11/07 03:06:01;;;;;;;4.00;3.70;;;;;;;11.21;72.40;99548.09;6012128;23;20023;-84
2021/11/07 03:08:29;;;;;;;4.20;3.50;;;;;;;11.20;72.41;99536.72;5986603;23;20036;-84
2021/11/07 03:10:59;;;;;;;5.57;4.00;;;;;;;11.20;72.75;99533.22;6012295;23;20024;-84
2021/11/07 03:13:26;;;;;;;6.25;4.38;;;;;;;11.21;72.78;99537.53;6012237;23;20027;-82
2021/11/07 03:15:52;;;;;;;4.82;4.13;;;;;;;11.21;72.73;99534.91;6012624;23;20031;-82
2021/11/07 03:18:19;;;;;;;4.03;3.63;;;;;;;11.21;72.80;99540.19;6011691;23;20079;-82
2021/11/07 03:20:46;;;;;;;5.00;3.88;;;;;;;11.22;72.88;99539.25;6012313;23;20401;-83
2021/11/07 03:23:20;;;;;;;4.15;3.60;;;;;;;11.22;72.94;99544.53;6012001;23;20049;-82
2021/11/07 03:25:55;;;;;;;4.10;3.70;;;;;;;11.21;73.07;99543.69;6011552;23;20038;-82
2021/11/07 03:28:22;;;;;;;4.60;3.97;;;;;;;11.23;72.81;99538.31;6013101;23;20028;-85
2021/11/07 03:31:00;;;;;;;5.03;3.95;;;;;;;11.23;72.98;99543.59;6011336;23;20091;-82
2021/11/07 03:33:32;;;;;;;4.10;3.40;;;;;;;11.23;73.16;99537.44;6011344;23;20459;-85
2021/11/07 03:36:03;;;;;;;4.00;3.60;;;;;;;11.26;73.02;99551.31;6011726;23;20040;-85
2021/11/07 03:38:30;;;;;;;5.40;4.00;;;;;;;11.26;73.05;99546.03;6009979;23;20035;-82
2021/11/07 03:40:57;;;;;;;4.22;3.83;;;;;;;11.28;73.19;99549.41;5985896;23;20095;-82
2021/11/07 03:43:28;;;;;;;5.85;4.18;;;;;;;11.32;73.27;99552.69;6007505;23;20031;-83
2021/11/07 03:45:59;;;;;;;5.47;4.97;;;;;;;11.32;73.63;99545.63;6009176;23;20360;-83
2021/11/07 03:48:26;;;;;;;4.97;4.47;;;;;;;11.35;73.22;99544.59;6010517;23;20032;-84
2021/11/07 03:50:53;;;;;;;6.00;5.15;;;;;;;11.36;73.16;99532.25;6009372;23;20024;-88
2021/11/07 03:53:20;;;;;;;6.68;4.88;;;;;;;11.38;73.20;99525.94;5986701;23;20032;-84
2021/11/07 03:55:47;;;;;;;7.07;5.35;;;;;;;11.39;73.64;99519.72;6009141;23;20027;-85
2021/11/07 03:58:14;;;;;;;5.82;5.13;;;;;;;11.39;73.49;99514.47;6010110;23;20529;-84
2021/11/07 04:00:42;;;;;;;6.93;5.97;;;;;;;11.41;73.65;99512.59;6009254;23;20032;-86
2021/11/07 04:03:09;;;;;;;7.20;5.78;;;;;;;11.44;73.82;99508.91;5986249;23;20027;-86
2021/11/07 04:05:36;;;;;;;7.13;5.90;;;;;;;11.44;73.51;99501.00;6010518;23;20035;-85
2021/11/07 04:08:03;;;;;;;7.10;6.40;;;;;;;11.47;73.51;99495.50;5985451;23;20030;-85
2021/11/07 04:10:31;;;;;;;6.60;5.88;;;;;;;11.49;73.71;99495.41;6010913;23;20043;-85
2021/11/07 04:12:58;;;;;;;7.47;6.78;;;;;;;11.49;73.65;99485.72;6011525;23;20095;-83
2021/11/07 04:15:25;;;;;;;7.35;5.95;;;;;;;11.50;73.58;99487.41;6011855;23;20032;-84
2021/11/07 04:17:58;;;;;;;6.70;6.05;;;;;;;11.52;73.76;99493.44;6011335;23;20047;-84
2021/11/07 04:20:25;;;;;;;8.13;6.47;;;;;;;11.53;73.69;99497.75;5986494;23;20028;-86
2021/11/07 04:22:51;;;;;;;9.65;6.22;;;;;;;11.55;73.68;99490.56;6011196;23;20023;-82
2021/11/07 04:25:18;;;;;;;7.10;5.25;;;;;;;11.55;73.67;99493.22;5985924;23;20027;-82
2021/11/07 04:27:45;;;;;;;7.68;5.03;;;;;;;11.57;73.47;99499.25;5986718;23;20038;-84
2021/11/07 04:30:14;;;;;;;6.55;4.60;;;;;;;11.58;73.28;99503.56;5985866;23;20034;-82
2021/11/07 04:32:42;;;;;;;7.72;4.45;;;;;;;11.60;73.54;99493.75;6008728;23;20028;-86
2021/11/07 04:35:13;;;;;;;6.07;3.53;;;;;;;11.59;73.35;99492.06;6010873;23;20024;-88
2021/11/07 04:37:42;;;;;;;6.03;3.42;;;;;;;11.60;73.24;99491.13;6009630;23;20030;-86
2021/11/07 04:40:15;;;;;;;4.65;3.45;;;;;;;11.59;73.41;99497.34;6009253;23;20027;-84
2021/11/07 04:42:46;;;;;;;4.70;3.53;;;;;;;11.59;73.16;99485.97;6008977;23;20028;-86
2021/11/07 04:45:14;;;;;;;;;;;;;;;11.58;73.85;99482.47;6010535;23;20028;-90
2021/11/07 04:47:41;;;;;;;4.32;2.97;;;;;;;11.63;73.02;99481.34;6010564;23;20002;-88
2021/11/07 04:50:17;;;;;;;4.03;3.20;;;;;;;11.60;72.99;99477.94;6010015;23;20039;-86
2021/11/07 04:53:10;;;;;;;4.97;2.88;;;;;;;11.57;73.85;99486.06;6010008;23;20407;-87
2021/11/07 04:55:42;;;;;;;5.05;3.25;;;;;;;11.60;73.50;99483.22;6010183;23;20359;-86
2021/11/07 04:58:12;;;;;;;3.53;3.22;;;;;;;11.62;73.25;99479.66;5986125;23;20031;-87
2021/11/07 05:00:48;;;;;;;8.95;3.80;;;;;;;11.61;73.30;99476.16;5985884;23;20027;-87
2021/11/07 05:03:18;;;;;;;6.13;4.03;;;;;;;11.60;73.50;99477.94;6008166;23;20091;-87
2021/11/07 05:06:00;;;;;;;5.40;4.25;;;;;;;11.60;73.56;99483.22;5985774;23;20038;-87
2021/11/07 05:08:35;;;;;;;5.43;4.18;;;;;;;11.63;73.30;99474.28;5985798;23;20032;-87
2021/11/07 05:11:03;;;;;;;6.43;4.50;;;;;;;11.64;73.34;99477.75;6010136;23;20317;-87
2021/11/07 05:13:31;;;;;;;6.35;4.30;;;;;;;11.65;73.21;99469.72;6007994;23;20449;-87
2021/11/07 05:15:58;;;;;;;6.60;4.38;;;;;;;11.66;73.22;99478.50;5985891;23;20030;-85
2021/11/07 05:18:28;;;;;;;5.45;4.38;;;;;;;11.66;73.52;99475.88;6011200;23;20042;-85
2021/11/07 05:21:03;;;;;;;7.25;4.57;;;;;;;11.68;73.33;99476.59;6009666;23;20102;-88
2021/11/07 05:23:31;;;;;;;7.32;3.92;;;;;;;11.68;73.37;99473.97;6010402;23;20020;-88
2021/11/07 05:25:58;;;;;;;7.43;4.13;;;;;;;11.69;73.36;99473.00;6010640;23;20028;-88
2021/11/07 05:28:33;;;;;;;7.43;4.30;;;;;;;11.68;73.52;99487.13;5986939;23;20079;-89
2021/11/07 05:31:00;;;;;;;7.77;3.97;;;;;;;11.69;73.28;99480.91;6011275;23;20031;-87
2021/11/07 05:33:33;;;;;;;4.82;3.40;;;;;;;11.71;73.17;99484.31;5987203;23;20655;-87
2021/11/07 05:36:00;;;;;;;4.80;3.70;;;;;;;11.71;73.01;99476.41;5986808;23;20028;-85
2021/11/07 05:38:27;;;;;;;9.60;3.65;;;;;;;11.72;73.13;99483.34;6009144;23;20024;-87
2021/11/07 05:40:54;;;;;;;6.70;3.13;;;;;;;11.71;73.10;99479.03;6009352;23;20035;-85
2021/11/07 05:43:23;;;;;;;8.68;3.63;;;;;;;11.72;73.01;99480.72;6011203;23;20035;-87
2021/11/07 05:46:00;;;;;;;9.07;3.15;;;;;;;11.71;73.19;99479.03;5988134;23;20027;-86
2021/11/07 05:48:29;;;;;;;9.23;3.50;;;;;;;11.71;73.14;99481.66;6011471;23;20028;-87
2021/11/07 05:50:57;;;;;;;6.18;3.38;;;;;;;11.70;72.97;99474.72;6010120;23;20356;-87
2021/11/07 05:53:34;;;;;;;7.05;3.38;;;;;;;11.68;73.09;99473.97;6009976;23;20024;-88
2021/11/07 05:56:00;;;;;;;8.40;3.60;;;;;;;11.69;72.99;99478.28;6009963;23;20031;-85
2021/11/07 05:58:27;;;;;;;7.88;3.38;;;;;;;11.67;72.83;99473.09;6011243;23;20042;-87
2021/11/07 06:01:06;;;;;;;12.18;3.88;;;;;;;11.64;73.38;99472.47;6010890;23;20511;-88
2021/11/07 06:03:36;;;;;;;10.90;3.70;;;;;;;11.64;73.37;99461.91;5986385;23;20023;-87
2021/11/07 06:06:16;;;;;;;10.18;4.25;;;;;;;11.66;73.21;99466.16;6008594;23;20028;-85
2021/11/07 06:08:43;;;;;;;11.80;5.15;;;;;;;11.66;73.23;99462.69;5986463;23;20099;-85
2021/11/07 06:11:28;;;;;;;7.20;4.65;;;;;;;11.63;73.67;99468.16;6010673;23;20032;-87
2021/11/07 06:13:57;;;;;;;14.73;5.22;;;;;;;11.68;73.27;99464.25;5986879;23;20058;-86
2021/11/07 06:16:23;;;;;;;12.60;5.35;;;;;;;11.69;73.52;99478.28;6011538;23;20028;-87
2021/11/07 06:18:50;;;;;;;9.50;5.32;;;;;;;11.69;73.22;99468.59;6009107;23;20027;-86
2021/11/07 06:21:25;;;;;;;8.80;5.65;;;;;;;11.68;73.79;99481.88;6010747;23;20035;-87
2021/11/07 06:23:56;;;;;;;15.73;7.00;;;;;;;11.70;73.50;99480.00;6010748;23;20490;-85
2021/11/07 06:26:29;;;;;;;12.73;5.50;;;;;;;11.71;73.30;99481.66;5986495;23;20087;-86
2021/11/07 06:28:59;;;;;;;12.80;5.15;;;;;;;11.72;73.43;99486.84;5985964;23;20546;-85
2021/11/07 06:31:26;;;;;;;12.68;6.18;;;;;;;11.73;73.39;99485.03;5985800;23;20047;-84
2021/11/07 06:34:05;;;;;;;14.63;6.07;;;;;;;11.71;73.53;99479.84;6009187;23;20027;-85
2021/11/07 06:36:35;;;;;;;12.45;6.25;;;;;;;11.74;73.15;99489.38;6010066;23;20083;-86
2021/11/07 06:39:08;;;;;;;13.02;6.22;;;;;;;11.74;73.19;99484.13;5986771;23;20031;-86
2021/11/07 06:41:49;;;;;;;11.77;5.90;;;;;;;11.74;72.91;99484.13;6007810;23;20028;-85
2021/11/07 06:44:16;;;;;;;13.68;6.53;;;;;;;11.71;72.92;99477.22;5985429;23;20027;-86
2021/11/07 06:46:43;;;;;;;11.52;5.60;;;;;;;11.71;72.98;99500.94;6009743;23;20044;-86
2021/11/07 06:49:13;;;;;;;11.80;5.70;;;;;;;11.69;73.01;99502.88;5985062;23;20035;-85
2021/11/07 06:51:42;;;;;;;13.80;5.32;;;;;;;11.68;72.90;99501.19;6010185;23;20028;-87
2021/11/07 06:54:10;;;;;;;16.25;5.82;;;;;;;11.67;72.94;99503.91;6010467;23;20027;-86
2021/11/07 06:56:37;;;;;;;11.48;5.30;;;;;;;11.67;73.02;99504.75;5985184;23;20023;-86
2021/11/07 06:59:08;;;;;;;18.65;5.97;;;;;;;11.65;73.06;99503.16;5984564;23;20519;-86
2021/11/07 07:01:43;;;;;;;15.80;5.00;;;;;;;11.66;72.93;99507.50;6008478;23;20439;-85
2021/11/07 07:04:15;;;;;;;10.75;4.60;;;;;;;11.66;72.79;99507.50;6008267;23;20024;-86
2021/11/07 07:06:42;;;;;;;13.48;5.80;;;;;;;11.64;72.74;99509.38;6007896;23;20457;-87
2021/11/07 07:09:12;;;;;;;14.07;5.85;;;;;;;11.65;72.92;99513.69;6008623;23;20020;-85
2021/11/07 07:14:12;;;;;;;16.75;5.68;;;;;;;11.63;72.85;99526.16;6010239;23;20036;-88
2021/11/07 07:27:21;;;;;;;12.40;3.88;;;;;;;11.59;72.20;99536.88;6010466;23;20032;-82
2021/11/07 07:32:38;;;;;;;11.52;3.92;;;;;;;11.56;72.21;99533.63;6010549;23;20115;-83
2021/11/07 07:35:06;;;;;;;10.43;3.67;;;;;;;11.55;72.11;99529.28;6007351;23;20019;-86
2021/11/07 07:37:34;;;;;;;11.43;3.50;;;;;;;11.52;72.08;99532.97;5984755;23;20428;-86
2021/11/07 07:40:00;;;;;;;15.82;3.83;;;;;;;11.51;72.00;99539.16;6007660;23;20031;-85
2021/11/07 07:42:31;;;;;;;11.90;3.70;;;;;;;11.47;71.96;99528.00;6010207;23;20024;-89
2021/11/07 07:45:01;;;;;;;14.65;3.65;;;;;;;11.49;72.06;99540.22;6010084;23;20365;-83
2021/11/07 07:47:29;;;;;;;14.13;3.42;;;;;;;11.47;72.15;99540.31;6010312;23;20386;-85
2021/11/07 07:49:58;;;;;;;19.60;3.40;;;;;;;11.48;72.24;99536.75;5985709;23;20038;-82
2021/11/07 07:52:27;;;;;;;12.57;3.10;;;;;;;11.47;72.11;99535.03;6009989;23;20028;-83
2021/11/07 07:54:58;;;;;;;14.95;3.78;;;;;;;11.47;72.09;99530.63;6010324;23;20066;-84
2021/11/07 07:57:24;;;;;;;16.55;3.38;;;;;;;11.47;72.20;99533.25;6010692;23;20027;-86
2021/11/07 07:59:52;;;;;;;10.73;2.95;;;;;;;11.49;72.02;99542.84;6009703;23;20075;-83
2021/11/07 08:02:19;;;;;;;21.52;4.80;;;;;;;11.49;72.08;99540.22;5987065;23;20024;-83
2021/11/07 08:04:46;;;;;;;17.55;3.85;;;;;;;11.47;71.87;99542.94;6011558;23;20031;-85
2021/11/07 08:07:12;;;;;;;19.77;3.78;;;;;;;11.47;71.89;99535.03;6011666;23;20455;-84
2021/11/07 08:09:39;;;;;;;18.17;4.55;;;;;;;11.48;71.89;99534.13;5987351;23;20039;-83
2021/11/07 08:12:06;;;;;;;15.63;3.38;;;;;;;11.47;71.74;99542.94;6011359;23;20024;-83
2021/11/07 08:14:35;;;;;;;12.90;3.75;;;;;;;11.47;71.84;99541.16;6011109;23;20024;-84
2021/11/07 08:17:03;;;;;;;12.75;3.20;;;;;;;11.46;71.58;99531.56;6012080;23;20034;-85
2021/11/07 08:19:30;;;;;;;14.02;3.10;;;;;;;11.47;71.77;99546.44;6011109;23;20051;-85
2021/11/07 08:21:57;;;;;;;15.15;3.30;;;;;;;11.48;71.62;99549.94;6008275;23;20047;-84
2021/11/07 08:24:24;;;;;;;14.70;3.40;;;;;;;11.47;71.62;99545.59;6009563;23;20092;-85
2021/11/07 08:26:50;;;;;;;15.70;3.85;;;;;;;11.47;71.64;99553.50;5985917;23;20031;-83
2021/11/07 08:29:17;;;;;;;16.92;3.47;;;;;;;11.45;71.46;99543.03;6010459;23;20523;-87
2021/11/07 08:31:49;;;;;;;13.60;3.75;;;;;;;11.46;71.49;99554.44;5986396;23;20468;-84
2021/11/07 08:34:16;;;;;;;21.20;3.80;;;;;;;11.46;71.56;99557.06;6008929;23;20356;-85
2021/11/07 08:36:55;;;;;;;15.40;3.78;;;;;;;11.47;71.80;99548.22;5986035;23;20031;-83
2021/11/07 08:41:58;;;;;;;18.45;3.67;;;;;;;11.50;71.65;99553.31;6010992;23;20055;-84
2021/11/07 09:01:26;;;;;;;17.10;4.35;;;;;;;11.63;71.86;99552.50;6012545;23;20396;-86
2021/11/07 09:06:36;;;;;;;16.58;3.60;;;;;;;11.71;71.65;99552.88;6012847;23;20027;-84
2021/11/07 09:09:14;;;;;;;16.88;3.40;;;;;;;11.73;71.06;99562.38;5988456;23;20095;-86
2021/11/07 09:11:56;;;;;;;15.10;3.15;;;;;;;11.79;71.09;99561.13;5988303;23;20079;-83
2021/11/07 09:14:34;;;;;;;17.55;3.60;;;;;;;11.83;70.72;99553.84;6011192;23;20034;-86
2021/11/07 09:17:12;;;;;;;13.63;3.40;;;;;;;11.85;70.60;99542.25;6013322;23;20020;-87
2021/11/07 09:19:40;;;;;;;14.25;3.35;;;;;;;11.88;70.61;99554.38;5988650;23;20060;-86
2021/11/07 09:22:13;;;;;;;17.27;3.72;;;;;;;11.92;70.44;99544.50;6013161;23;20028;-86
2021/11/07 09:25:00;;;;;;;16.40;3.75;;;;;;;11.91;70.03;99554.19;6012800;23;20024;-86
2021/11/07 09:27:33;;;;;;;13.57;3.38;;;;;;;11.92;70.12;99549.78;5991478;23;20031;-85
2021/11/07 09:38:05;;;;;;;15.68;3.30;;;;;;;12.02;70.16;99558.75;6011051;23;20024;-83
2021/11/07 09:40:57;;;;;;;18.38;3.58;;;;;;;12.06;70.06;99557.63;6011214;23;20032;-86
2021/11/07 09:43:39;;;;;;;15.55;3.00;;;;;;;12.12;69.36;99557.22;6010414;23;20709;-84
2021/11/07 09:48:36;;;;;;;7.55;2.20;;;;;;;12.19;68.62;99567.38;6012994;23;20330;-84
2021/11/07 09:51:16;;;;;;;13.52;3.33;;;;;;;12.21;68.09;99560.19;6011663;23;20528;-87
2021/11/07 09:53:49;;;;;;;12.75;2.33;;;;;;;12.21;67.54;99568.09;5987938;23;20016;-83
2021/11/07 09:56:16;;;;;;;12.23;3.00;;;;;;;12.24;68.20;99570.53;6012015;23;20023;-85
2021/11/07 09:58:46;;;;;;;10.25;2.03;;;;;;;12.25;67.73;99577.50;5987239;23;20023;-86
2021/11/07 10:01:13;;;;;;;7.50;2.05;;;;;;;12.25;67.77;99575.72;6011619;23;20043;-86
2021/11/07 10:03:42;;;;;;;11.15;2.45;;;;;;;12.26;67.24;99584.47;6012612;23;20046;-82
2021/11/07 10:06:32;;;;;;;11.02;2.63;;;;;;;12.21;65.43;99558.41;6012741;23;20020;-87
2021/11/07 10:09:00;;;;;;;14.68;2.50;;;;;;;12.25;67.06;99566.94;5987577;23;20036;-83
2021/11/07 10:11:37;;;;;;;6.45;1.95;;;;;;;12.24;67.31;99557.34;6012679;23;20034;-83
2021/11/07 10:14:18;;;;;;;8.07;2.10;;;;;;;12.24;66.70;99562.63;6011724;23;20019;-83
2021/11/07 10:16:53;;;;;;;11.90;2.60;;;;;;;12.25;66.69;99559.03;6012855;23;20360;-84
2021/11/07 10:19:33;;;;;;;11.52;2.40;;;;;;;12.22;64.49;99561.88;5987040;23;20031;-88
2021/11/07 10:22:00;;;;;;;8.23;1.70;;;;;;;12.24;66.34;99562.63;6011525;23;20106;-85
2021/11/07 10:24:37;;;;;;;6.28;2.47;;;;;;;12.23;66.40;99563.59;6011987;23;20031;-82
2021/11/07 10:27:12;;;;;;;9.98;2.05;;;;;;;12.24;66.88;99565.28;5987110;23;20030;-83
2021/11/07 10:29:50;;;;;;;6.72;1.65;;;;;;;12.26;66.99;99555.44;6011177;23;20083;-82
2021/11/07 10:32:43;;;;;;;6.47;1.70;;;;;;;12.27;65.61;99549.22;6011269;23;20047;-82
2021/11/07 10:35:43;;;;;;;3.83;1.53;;;;;;;12.40;67.53;99546.59;6011503;23;20195;-82
2021/11/07 10:53:53;;;;;;;11.27;2.63;;;;;;;13.23;67.02;99533.81;6010558;23;20024;-81
2021/11/07 10:56:19;;;;;;;10.65;2.58;;;;;;;13.34;67.01;99527.75;6010412;23;20032;-82
2021/11/07 10:58:46;;;;;;;15.77;2.83;;;;;;;13.46;66.51;99535.75;6008882;23;20031;-83
2021/11/07 11:01:21;;;;;;;14.10;3.22;;;;;;;13.56;64.81;99531.50;6010644;23;20429;-85
2021/11/07 11:03:54;;;;;;;11.38;2.80;;;;;;;13.66;65.47;99529.03;5985340;23;20027;-82
2021/11/07 11:06:21;;;;;;;10.55;2.85;;;;;;;13.79;65.73;99535.09;6010442;23;20028;-81
2021/11/07 11:08:56;;;;;;;14.77;2.92;;;;;;;13.85;63.90;99532.97;6010211;23;20031;-81
2021/11/07 11:11:31;;;;;;;12.10;2.80;;;;;;;13.88;64.05;99530.94;6008594;23;20035;-84
2021/11/07 11:33:15;;;;;;;11.07;2.47;;;;;;;13.40;63.79;99527.34;6009610;23;20043;-83
2021/11/07 11:35:50;;;;;;;12.32;3.03;;;;;;;13.37;64.89;99531.97;6008763;23;20080;-85
2021/11/07 11:46:35;;;;;;;9.45;2.00;;;;;;;13.40;62.46;99540.56;5999629;23;20028;-82
2021/11/07 12:00:16;;;;;;;9.13;1.90;;;;;;;13.41;61.97;99530.78;6009994;23;20031;-82
2021/11/07 12:06:16;;;;;;;8.57;2.13;;;;;;;13.48;62.39;99526.78;6009412;23;20100;-85
2021/11/07 12:11:13;;;;;;;9.88;2.03;;;;;;;14.20;66.98;99525.03;6009482;23;20035;-86
2021/11/07 12:13:55;;;;;;;12.05;2.35;;;;;;;14.84;65.77;99525.47;5984382;23;20020;-84
2021/11/07 12:16:47;;;;;;;9.82;2.38;;;;;;;15.55;64.79;99525.25;6009041;23;20023;-84
2021/11/07 12:19:19;;;;;;;9.90;2.17;;;;;;;16.21;65.24;99529.53;5984619;23;20051;-85
2021/11/07 12:21:56;;;;;;;9.93;2.22;;;;;;;16.74;60.76;99527.72;6007838;23;20019;-83
2021/11/07 12:24:44;;;;;;;12.25;2.75;;;;;;;17.12;59.17;99535.19;6009819;23;20024;-84
2021/11/07 12:27:28;;;;;;;7.55;2.45;;;;;;;17.34;57.65;99518.13;5984891;23;20027;-85
2021/11/07 12:30:04;;;;;;;10.27;2.58;;;;;;;17.43;55.93;99516.47;5984355;23;20027;-83
2021/11/07 12:32:37;;;;;;;10.23;2.55;;;;;;;17.42;56.51;99517.47;6007563;23;20035;-85
2021/11/07 12:35:22;;;;;;;12.05;2.40;;;;;;;17.29;56.18;99521.22;6007423;23;20030;-85
2021/11/07 12:40:49;;;;;;;10.27;2.60;;;;;;;16.71;54.97;99525.34;6008731;23;20020;-84
2021/11/07 12:43:25;;;;;;;11.18;2.60;;;;;;;16.39;55.34;99513.88;5985305;23;20019;-84
2021/11/07 12:46:11;;;;;;;8.43;2.60;;;;;;;16.01;54.68;99521.44;6010448;23;20098;-84
2021/11/07 12:48:54;;;;;;;16.65;3.13;;;;;;;15.72;54.84;99531.81;6010304;23;20048;-84
2021/11/07 12:51:50;;;;;;;10.82;2.70;;;;;;;15.43;55.29;99522.59;6009772;23;20023;-86
2021/11/07 12:54:31;;;;;;;11.20;2.53;;;;;;;15.17;56.43;99524.72;6009783;23;20095;-81
2021/11/07 12:57:03;;;;;;;14.05;2.55;;;;;;;14.95;57.33;99506.06;5985378;23;20028;-83
2021/11/07 12:59:30;;;;;;;10.60;2.55;;;;;;;14.80;58.38;99508.13;5985365;23;20063;-83
2021/11/07 13:02:05;;;;;;;12.15;3.47;;;;;;;14.68;59.23;99507.25;5984715;23;20324;-81
2021/11/07 13:04:57;;;;;;;14.40;2.58;;;;;;;14.54;57.77;99510.16;6010337;23;20016;-83
2021/11/07 13:07:29;;;;;;;13.23;3.22;;;;;;;14.54;59.04;99515.44;5985342;23;20515;-82
2021/11/07 13:10:00;;;;;;;11.88;2.95;;;;;;;14.51;58.66;99513.88;6009833;23;20027;-81
2021/11/07 13:12:49;;;;;;;15.30;2.83;;;;;;;14.52;59.01;99506.75;6010500;23;20035;-82
2021/11/07 13:29:45;;;;;;;12.85;2.88;;;;;;;14.88;59.89;99502.22;6009999;23;20028;-87
2021/11/07 13:32:38;;;;;;;15.15;3.05;;;;;;;14.98;58.59;99504.97;6010131;23;20024;-85
2021/11/07 13:35:23;;;;;;;13.80;2.85;;;;;;;15.03;57.97;99515.22;5982874;23;20127;-86
2021/11/07 13:38:15;;;;;;;10.15;2.50;;;;;;;14.95;54.22;99514.03;5985603;23;20031;-82
2021/11/07 13:40:41;;;;;;;12.02;2.75;;;;;;;14.92;57.41;99518.72;5986405;23;20050;-84
2021/11/07 13:43:50;;;;;;;15.23;2.92;;;;;;;14.77;56.66;99515.47;6011777;23;20020;-84
2021/11/07 13:46:07;;;;;;;15.80;3.03;;;;;;;14.58;57.25;99509.78;6008449;23;20151;-83
2021/11/07 13:48:35;;;;;;;12.75;3.38;;;;;;;14.42;57.37;99506.63;5987067;23;20047;-85
2021/11/07 13:51:03;;;;;;;15.40;3.50;;;;;;;14.27;57.52;99508.66;6012545;23;20631;-82
2021/11/07 13:53:38;;;;;;;14.00;3.05;;;;;;;14.11;56.80;99498.41;5987599;23;20034;-85
2021/11/07 13:56:08;;;;;;;10.02;2.60;;;;;;;14.01;57.96;99506.19;6012603;23;20028;-86
2021/11/07 13:58:40;;;;;;;14.18;3.65;;;;;;;13.90;57.73;99504.34;6011664;23;20027;-89
2021/11/07 14:01:13;;;;;;;10.75;2.38;;;;;;;13.78;57.84;99509.63;6011467;23;20028;-87
2021/11/07 14:03:43;;;;;;;;;;;;;;;13.70;57.99;99511.13;6013285;23;20084;-85
2021/11/07 14:06:17;;;;;;;10.05;2.75;;;;;;;13.65;59.11;99506.19;6010743;23;20314;-84
2021/11/07 14:08:59;;;;;;;16.50;3.08;;;;;;;13.55;58.59;99503.38;6011562;23;20028;-83
2021/11/07 14:11:27;;;;;;;11.43;2.30;;;;;;;13.51;59.77;99509.84;5988224;23;20330;-84
2021/11/07 14:14:00;;;;;;;13.23;2.63;;;;;;;13.46;59.87;99510.16;6011522;23;20071;-88
2021/11/07 14:16:32;;;;;;;15.90;2.80;;;;;;;13.44;60.42;99512.06;6010241;23;20375;-86
2021/11/07 14:19:04;;;;;;;11.48;2.50;;;;;;;13.46;60.78;99504.03;5986641;23;20032;-85
2021/11/07 14:21:32;;;;;;;9.95;2.88;;;;;;;13.49;61.30;99511.78;5986675;23;20028;-85
2021/11/07 14:24:06;;;;;;;10.90;2.95;;;;;;;13.55;61.64;99519.25;6011672;23;20079;-88